Huvudsida
METAR-TAF:

METAR-TAF

Flygplatser :

Damascus Int. Airport

Damaskus, Syrien

latitud: 33-25N, longitud: 036-31E, höjd: 608 m

Aktuellt väderrapport

Denna rapport gjordes för 26 minuter sedan, klockan 19:00 UTC
Vind 4 kt från nord/nordväst
Temperatur 12°C
Fuktighet 32%
Tryck 1020 hPa
Sikt 10 km eller mer
Inga moln under 1 500 m eller inga cumulonimbus

METAR: OSDI 111900Z 34004KT CAVOK 12/M04 Q1020

Tid: 21:26 (19:26 UTC)

Väderprognos

Denna rapport gjordes för 15 timmar och 26 minuter sedan, klockan 04:00 UTC
Prognos gäller från 11 kl. 06 UTC till 12 kl. 12 UTC
Vind 3 kt varierande vindriktning
Sikt 10 km eller mer
Inga moln under 1 500 m eller inga cumulonimbus
Temporärt
från 11 kl. 09 UTC till 11 kl. 18 UTC
Vind 10 kt från sydväst
Sikt 10 km eller mer
Få moln på en höjd av 3000 ft
Spridda moln på en höjd av 10000 ft

TAF: OSDI 110400Z 1106/1212 VRB03KT CAVOK TEMPO 1109/1118 22010KT 9999 FEW030 SCT100

Aktuella väderrapporter och prognoser från 4000 flygplatser (METAR- och TAF-rapporter).

De tillgängliga stationerna syns som gula och röda prickar på kartan.

För musen över prickarna för att se namnen på stationerna.

Klicka sedan för att få väderrapporter och prognoser.

För att ändra kartan: Klicka på de gröna knapparna med ett svart kors på för att zooma in; den gröna knappen med ett streck på för att zooma ut; eller på de gröna pilarna för angränsande kartor.


METAR-TAF: